Time;durP1;ratioP1;P1;durP2;ratioP2;P2;SDS_P1;SDS_P2;PMS_P1;PMS_P2;Temp;Humidity;BMP_temperature;BMP_pressure;BME280_temperature;BME280_humidity;BME280_pressure;Samples;Min_cycle;Max_cycle;Signal;HPM_P1;HPM_P2
2022/08/07 00:02:11;;;;;;;1.00;1.00;;;15.80;99.90;;;;;;6082967;23;20391;-82
2022/08/07 00:04:58;;;;;;;3.10;1.70;;;15.70;99.90;;;;;;6090652;23;20505;-79
2022/08/07 00:07:26;;;;;;;1.90;1.30;;;15.80;99.90;;;;;;6059864;23;20412;-79
2022/08/07 00:10:06;;;;;;;2.63;1.50;;;15.90;99.90;;;;;;6062760;23;20377;-81
2022/08/07 00:12:54;;;;;;;1.33;1.20;;;15.90;99.90;;;;;;6084000;23;20419;-80
2022/08/07 00:15:28;;;;;;;2.83;1.20;;;15.80;99.90;;;;;;6078996;23;20363;-83
2022/08/07 00:18:17;;;;;;;1.20;1.10;;;15.90;99.90;;;;;;6079345;23;20422;-84
2022/08/07 00:20:59;;;;;;;4.80;1.77;;;16.00;99.90;;;;;;6054516;23;20721;-82
2022/08/07 00:23:29;;;;;;;1.30;1.20;;;16.10;99.90;;;;;;6077742;23;20429;-80
2022/08/07 00:25:56;;;;;;;2.00;1.90;;;16.00;99.90;;;;;;6053974;23;20435;-83
2022/08/07 00:28:38;;;;;;;1.60;1.50;;;16.00;99.90;;;;;;6081657;23;20458;-80
2022/08/07 00:31:11;;;;;;;1.40;1.30;;;15.90;99.90;;;;;;6082317;23;20450;-81
2022/08/07 00:33:43;;;;;;;4.33;1.13;;;15.90;99.90;;;;;;6082834;23;20396;-79
2022/08/07 00:36:13;;;;;;;1.20;1.10;;;15.90;99.90;;;;;;6082348;23;20435;-81
2022/08/07 00:38:42;;;;;;;1.10;1.10;;;15.90;99.90;;;;;;6056112;23;20177;-80
2022/08/07 00:41:10;;;;;;;1.70;1.13;;;16.00;99.90;;;;;;6056152;23;20446;-82
2022/08/07 00:43:41;;;;;;;1.37;1.27;;;15.90;99.90;;;;;;6080546;23;20426;-82
2022/08/07 00:46:29;;;;;;;1.37;1.27;;;15.70;99.90;;;;;;6081314;23;20393;-82
2022/08/07 00:49:00;;;;;;;0.97;0.97;;;16.00;99.90;;;;;;6081376;23;20732;-82
2022/08/07 00:51:28;;;;;;;1.77;1.67;;;16.00;99.90;;;;;;6081112;23;20671;-81
2022/08/07 00:54:15;;;;;;;1.40;1.30;;;15.80;99.90;;;;;;6082291;23;20437;-82
2022/08/07 00:56:45;;;;;;;1.00;1.00;;;15.70;99.90;;;;;;6082357;23;20455;-83
2022/08/07 00:59:16;;;;;;;3.33;1.90;;;15.80;99.90;;;;;;6081512;23;20415;-82
2022/08/07 01:01:58;;;;;;;2.20;1.30;;;15.70;99.90;;;;;;6081548;23;20396;-83
2022/08/07 01:04:26;;;;;;;3.20;1.67;;;15.50;99.90;;;;;;6081312;23;20439;-82
2022/08/07 01:06:56;;;;;;;1.87;1.43;;;15.50;99.90;;;;;;6088331;23;20383;-81
2022/08/07 01:09:24;;;;;;;2.27;2.07;;;15.50;99.90;;;;;;6091413;23;20402;-83
2022/08/07 01:12:13;;;;;;;5.43;1.77;;;15.50;99.90;;;;;;6092206;23;20403;-81
2022/08/07 01:14:58;;;;;;;1.20;1.10;;;15.70;99.90;;;;;;6092669;23;20365;-80
2022/08/07 01:17:30;;;;;;;4.13;2.20;;;15.50;99.90;;;;;;6080392;23;20391;-82
2022/08/07 01:20:08;;;;;;;5.63;2.00;;;15.40;99.90;;;;;;6077519;23;20667;-81
2022/08/07 01:22:43;;;;;;;4.70;1.60;;;15.30;99.90;;;;;;6077588;23;20449;-82
2022/08/07 01:25:13;;;;;;;3.00;1.37;;;15.30;99.90;;;;;;6074989;23;20363;-82
2022/08/07 01:28:00;;;;;;;1.90;1.80;;;15.40;99.90;;;;;;6074657;23;20411;-82
2022/08/07 01:30:29;;;;;;;1.40;1.30;;;15.40;99.90;;;;;;6074658;23;20470;-80
2022/08/07 01:32:56;;;;;;;1.83;1.73;;;15.40;99.90;;;;;;6075078;23;20726;-80
2022/08/07 01:35:24;;;;;;;5.38;2.40;;;15.30;99.90;;;;;;6074967;23;20432;-81
2022/08/07 01:38:11;;;;;;;1.38;1.27;;;15.20;99.90;;;;;;6073915;23;20723;-83
2022/08/07 01:40:53;;;;;;;2.45;1.65;;;15.60;99.90;;;;;;6073431;23;20181;-80
2022/08/07 01:43:22;;;;;;;1.90;1.60;;;15.30;99.90;;;;;;6072939;23;20243;-80
2022/08/07 01:45:52;;;;;;;1.80;1.70;;;15.30;99.90;;;;;;6073831;23;20395;-82
2022/08/07 01:48:20;;;;;;;1.50;1.40;;;15.10;99.90;;;;;;6073201;23;20477;-81
2022/08/07 01:51:00;;;;;;;2.08;1.92;;;15.10;99.90;;;;;;6073840;23;20387;-81
2022/08/07 01:53:54;;;;;;;1.60;1.50;;;15.20;99.90;;;;;;6072294;23;20216;-83
2022/08/07 01:56:54;;;;;;;2.80;1.83;;;15.10;99.90;;;;;;6072706;23;20379;-81
2022/08/07 01:59:30;;;;;;;2.08;1.40;;;15.20;99.90;;;;;;6071724;23;20224;-80
2022/08/07 02:02:08;;;;;;;1.65;1.50;;;15.20;99.90;;;;;;6072312;23;20260;-82
2022/08/07 02:04:45;;;;;;;1.25;1.15;;;15.20;99.90;;;;;;6073474;23;20245;-81
2022/08/07 02:07:27;;;;;;;1.90;1.52;;;15.10;99.90;;;;;;6082879;23;20199;-80
2022/08/07 02:10:16;;;;;;;2.40;1.77;;;15.10;99.90;;;;;;6066369;23;20177;-83
2022/08/07 02:12:46;;;;;;;1.90;1.80;;;15.00;99.90;;;;;;6073975;23;20847;-81
2022/08/07 02:15:21;;;;;;;2.33;1.55;;;14.90;99.90;;;;;;6073440;23;20490;-82
2022/08/07 02:17:49;;;;;;;3.25;1.55;;;15.00;99.90;;;;;;6072758;23;20234;-81
2022/08/07 02:20:19;;;;;;;1.98;1.55;;;14.90;99.90;;;;;;6073695;23;20180;-81
2022/08/07 02:23:00;;;;;;;1.40;1.30;;;14.80;99.90;;;;;;6072742;23;20231;-82
2022/08/07 02:25:33;;;;;;;2.42;1.63;;;14.90;99.90;;;;;;6073630;23;20210;-81
2022/08/07 02:28:21;;;;;;;1.42;1.33;;;14.90;99.90;;;;;;6052317;23;20370;-83
2022/08/07 02:30:51;;;;;;;1.80;1.70;;;14.90;99.90;;;;;;6072486;23;20187;-81
2022/08/07 02:33:19;;;;;;;1.95;1.70;;;14.90;99.90;;;;;;6072652;23;20766;-82
2022/08/07 02:35:48;;;;;;;1.75;1.65;;;14.90;99.90;;;;;;6073201;23;20675;-80
2022/08/07 02:38:37;;;;;;;1.27;1.17;;;14.70;99.90;;;;;;6072475;23;20194;-81
2022/08/07 02:41:17;;;;;;;1.38;1.27;;;14.70;99.90;;;;;;6050710;23;20179;-81
2022/08/07 02:43:48;;;;;;;2.45;1.75;;;14.80;99.90;;;;;;6071947;23;20219;-79
2022/08/07 02:46:23;;;;;;;1.80;1.63;;;14.90;99.90;;;;;;6072995;23;20176;-81
2022/08/07 02:48:51;;;;;;;2.08;1.80;;;15.00;99.90;;;;;;6071758;23;20178;-81
2022/08/07 02:51:23;;;;;;;1.88;1.30;;;14.70;99.90;;;;;;6072170;23;20194;-83
2022/08/07 02:54:11;;;;;;;1.50;1.40;;;14.70;99.90;;;;;;6071804;23;20193;-81
2022/08/07 02:56:41;;;;;;;2.00;1.55;;;14.70;99.90;;;;;;6073154;23;20219;-82
2022/08/07 02:59:15;;;;;;;1.63;1.52;;;14.70;99.90;;;;;;6047444;23;20224;-80
2022/08/07 03:01:44;;;;;;;1.80;1.70;;;14.70;99.90;;;;;;6072732;23;20265;-81
2022/08/07 03:04:18;;;;;;;3.80;1.83;;;14.70;99.90;;;;;;6072392;23;20231;-80
2022/08/07 03:06:47;;;;;;;2.95;1.90;;;14.60;99.90;;;;;;6049970;23;20183;-80
2022/08/07 03:09:17;;;;;;;1.80;1.70;;;14.60;99.90;;;;;;6078370;23;20184;-82
2022/08/07 03:12:06;;;;;;;3.08;1.33;;;14.50;99.90;;;;;;6072942;23;20193;-82
2022/08/07 03:14:44;;;;;;;7.35;1.85;;;14.40;99.90;;;;;;6073968;23;20354;-82
2022/08/07 03:17:17;;;;;;;1.90;1.48;;;14.50;99.90;;;;;;6073541;23;20171;-82
2022/08/07 03:19:49;;;;;;;2.10;1.65;;;14.30;99.90;;;;;;6072548;23;20218;-82
2022/08/07 03:22:22;;;;;;;1.25;1.05;;;14.20;99.90;;;;;;6072000;23;20190;-81
2022/08/07 03:24:56;;;;;;;1.45;1.35;;;14.10;99.90;;;;;;6072247;23;20204;-81
2022/08/07 03:27:23;;;;;;;1.60;1.50;;;14.30;99.90;;;;;;6047449;23;20771;-81
2022/08/07 03:30:08;;;;;;;1.90;1.80;;;14.10;99.90;;;;;;6073557;23;20171;-81
2022/08/07 03:32:41;;;;;;;1.80;1.70;;;14.20;99.90;;;;;;6048942;23;20584;-82
2022/08/07 03:35:26;;;;;;;1.60;1.50;;;14.20;99.90;;;;;;6071931;23;20195;-82
2022/08/07 03:38:12;;;;;;;3.45;1.88;;;14.10;99.90;;;;;;6051277;23;20181;-81
2022/08/07 03:40:39;;;;;;;1.67;1.45;;;14.20;99.90;;;;;;6073005;23;20186;-83
2022/08/07 03:43:10;;;;;;;2.25;2.00;;;14.20;99.90;;;;;;6073916;23;20179;-82
2022/08/07 03:45:41;;;;;;;1.98;1.50;;;14.20;99.90;;;;;;6072567;23;20202;-82
2022/08/07 03:48:13;;;;;;;23.88;3.38;;;14.30;99.90;;;;;;6071681;23;20226;-82
2022/08/07 03:50:41;;;;;;;2.35;1.65;;;14.20;99.90;;;;;;6072160;23;20195;-82
2022/08/07 03:53:21;;;;;;;2.47;2.15;;;14.10;99.90;;;;;;6072354;23;20171;-82
2022/08/07 03:56:10;;;;;;;2.10;1.90;;;14.20;99.90;;;;;;6051284;23;20628;-82
2022/08/07 03:58:39;;;;;;;1.63;1.50;;;14.20;99.90;;;;;;6071439;23;20228;-81
2022/08/07 04:01:28;;;;;;;6.43;2.22;;;14.50;99.90;;;;;;6071015;23;20214;-83
2022/08/07 04:03:58;;;;;;;2.40;2.20;;;14.30;99.90;;;;;;6072270;23;20196;-81
2022/08/07 04:06:32;;;;;;;2.97;2.22;;;14.20;99.90;;;;;;6071999;23;20231;-81
2022/08/07 04:09:05;;;;;;;8.68;2.25;;;14.00;99.90;;;;;;6074988;23;20483;-81
2022/08/07 04:11:43;;;;;;;1.70;1.52;;;14.10;99.90;;;;;;6076699;23;20276;-80
2022/08/07 04:14:33;;;;;;;2.38;1.50;;;14.10;99.90;;;;;;6073320;23;20187;-81
2022/08/07 04:17:10;;;;;;;1.50;1.25;;;14.10;99.90;;;;;;6079815;23;20170;-82
2022/08/07 04:19:47;;;;;;;1.85;1.75;;;14.50;99.90;;;;;;6092018;23;20179;-81
2022/08/07 04:22:23;;;;;;;1.42;1.33;;;14.60;99.90;;;;;;6067995;23;20168;-81
2022/08/07 04:24:56;;;;;;;2.35;1.63;;;14.90;99.90;;;;;;6065590;23;20182;-82
2022/08/07 04:27:24;;;;;;;1.67;1.58;;;15.10;99.90;;;;;;6089688;23;20170;-82
2022/08/07 04:29:52;;;;;;;1.65;1.55;;;15.30;99.90;;;;;;6088561;23;20172;-81
2022/08/07 04:32:29;;;;;;;1.40;1.30;;;15.40;99.90;;;;;;6062547;23;20390;-81
2022/08/07 04:35:05;;;;;;;1.60;1.50;;;15.40;99.90;;;;;;6072324;23;20177;-83
2022/08/07 04:37:37;;;;;;;2.72;2.22;;;15.50;99.90;;;;;;6072818;23;20496;-81
2022/08/07 04:40:18;;;;;;;3.97;2.25;;;15.70;99.90;;;;;;6072362;23;20173;-81
2022/08/07 04:42:46;;;;;;;1.50;1.40;;;15.80;99.90;;;;;;6068328;23;20300;-83
2022/08/07 04:45:18;;;;;;;3.35;1.98;;;16.00;99.90;;;;;;6069288;23;20400;-82
2022/08/07 04:48:31;;;;;;;2.97;1.73;;;16.00;99.90;;;;;;6071561;23;20182;-82
2022/08/07 04:51:26;;;;;;;2.33;2.13;;;15.90;99.90;;;;;;6067518;23;20412;-83
2022/08/07 04:54:08;;;;;;;2.47;2.28;;;16.00;99.90;;;;;;6070550;23;20806;-82
2022/08/07 04:56:58;;;;;;;2.23;2.03;;;16.10;99.90;;;;;;6046108;23;20225;-82
2022/08/07 05:00:08;;;;;;;4.53;2.03;;;16.20;99.90;;;;;;6069390;23;20439;-81
2022/08/07 05:03:13;;;;;;;2.17;1.17;;;16.30;99.90;;;;;;6069647;23;20391;-83
2022/08/07 05:06:06;;;;;;;2.83;1.40;;;16.20;99.90;;;;;;6070591;23;20374;-84
2022/08/07 05:08:58;;;;;;;2.90;1.80;;;16.20;99.90;;;;;;6071380;23;20510;-82
2022/08/07 05:11:34;;;;;;;3.70;1.50;;;16.30;99.90;;;;;;6070875;23;20446;-81
2022/08/07 05:14:31;;;;;;;1.27;1.17;;;16.60;99.90;;;;;;6077239;23;20409;-81
2022/08/07 05:17:20;;;;;;;3.47;1.73;;;16.60;99.90;;;;;;6078628;23;20400;-80
2022/08/07 05:20:10;;;;;;;2.10;1.53;;;16.60;99.90;;;;;;6057705;23;20408;-81
2022/08/07 05:22:41;;;;;;;1.33;1.23;;;16.70;99.90;;;;;;6083292;23;20807;-81
2022/08/07 05:25:10;;;;;;;1.73;1.63;;;16.80;99.90;;;;;;6078790;23;20785;-80
2022/08/07 05:27:58;;;;;;;1.20;1.20;;;17.00;99.90;;;;;;6081819;23;20498;-81
2022/08/07 05:30:45;;;;;;;1.20;1.10;;;17.10;99.90;;;;;;6081262;23;20429;-83
2022/08/07 05:33:15;;;;;;;1.53;1.43;;;17.30;99.90;;;;;;6083323;23;20532;-81
2022/08/07 05:35:46;;;;;;;1.20;1.10;;;17.20;99.90;;;;;;6083982;23;20393;-81
2022/08/07 05:38:15;;;;;;;1.73;1.63;;;17.40;99.90;;;;;;6085470;23;20701;-81
2022/08/07 05:41:02;;;;;;;1.43;1.07;;;17.70;99.90;;;;;;6084273;23;20411;-83
2022/08/07 05:43:48;;;;;;;1.37;1.10;;;17.60;99.90;;;;;;6084750;23;20418;-80
2022/08/07 05:46:37;;;;;;;1.80;1.47;;;17.70;99.90;;;;;;6084450;23;20376;-81
2022/08/07 05:49:06;;;;;;;1.50;1.40;;;17.40;99.90;;;;;;6085506;23;20425;-81
2022/08/07 05:51:40;;;;;;;1.43;1.23;;;17.50;99.90;;;;;;6086176;23;20364;-80
2022/08/07 05:54:09;;;;;;;2.90;1.20;;;17.50;99.90;;;;;;6084402;23;20398;-82
2022/08/07 05:56:57;;;;;;;1.57;1.27;;;17.40;99.90;;;;;;6083624;23;20393;-80
2022/08/07 05:59:25;;;;;;;2.30;1.37;;;17.40;99.90;;;;;;6085365;23;20410;-82
2022/08/07 06:01:56;;;;;;;2.30;1.50;;;17.60;99.90;;;;;;6081628;23;20364;-82
2022/08/07 06:04:26;;;;;;;1.30;1.20;;;17.70;99.90;;;;;;6054466;23;20831;-82
2022/08/07 06:06:58;;;;;;;1.00;1.00;;;17.80;99.90;;;;;;6077841;23;20767;-85
2022/08/07 06:09:31;;;;;;;7.10;3.40;;;18.00;99.90;;;;;;6076311;23;20380;-83
2022/08/07 06:12:20;;;;;;;1.30;1.20;;;18.30;99.90;;;;;;6075941;23;20371;-82
2022/08/07 06:14:59;;;;;;;2.87;1.57;;;18.50;99.90;;;;;;6073925;23;20724;-82
2022/08/07 06:17:33;;;;;;;3.37;1.63;;;18.60;99.90;;;;;;6074538;23;20364;-83
2022/08/07 06:20:21;;;;;;;1.70;1.60;;;18.60;99.90;;;;;;6075482;23;20360;-83
2022/08/07 06:23:10;;;;;;;7.90;1.47;;;18.70;99.90;;;;;;6053999;23;20386;-83
2022/08/07 06:26:01;;;;;;;1.80;1.70;;;18.60;99.90;;;;;;6074554;23;20600;-82
2022/08/07 06:28:28;;;;;;;1.37;1.23;;;18.50;99.90;;;;;;6074067;23;20432;-81
2022/08/07 06:30:59;;;;;;;1.67;1.57;;;18.70;99.90;;;;;;6073420;23;20437;-82
2022/08/07 06:33:29;;;;;;;1.57;1.47;;;18.70;99.90;;;;;;6049196;23;20369;-80
2022/08/07 06:36:04;;;;;;;2.93;1.27;;;18.80;99.90;;;;;;6074327;23;20400;-82
2022/08/07 06:38:43;;;;;;;1.47;1.37;;;18.90;99.90;;;;;;6073183;23;20415;-83
2022/08/07 06:41:38;;;;;;;2.80;2.00;;;19.60;99.90;;;;;;6073136;23;20390;-82
2022/08/07 06:44:27;;;;;;;1.33;1.20;;;20.10;99.90;;;;;;6073336;23;20451;-80
2022/08/07 06:47:00;;;;;;;2.20;1.43;;;20.90;99.90;;;;;;6074246;23;20461;-80
2022/08/07 06:49:37;;;;;;;2.57;1.30;;;20.80;99.90;;;;;;6072989;23;20577;-82
2022/08/07 06:52:19;;;;;;;4.13;1.60;;;21.10;99.90;;;;;;6075596;23;20401;-81
2022/08/07 06:55:07;;;;;;;2.50;1.93;;;21.70;99.90;;;;;;6075089;23;20362;-83
2022/08/07 06:57:59;;;;;;;2.40;1.40;;;22.00;99.90;;;;;;6073476;23;20417;-82
2022/08/07 07:00:31;;;;;;;1.20;1.10;;;21.60;99.90;;;;;;6074098;23;20447;-81
2022/08/07 07:02:59;;;;;;;4.87;2.70;;;22.30;99.90;;;;;;6072741;23;20384;-82
2022/08/07 07:05:37;;;;;;;2.27;1.20;;;22.20;99.90;;;;;;6049886;23;20458;-83
2022/08/07 07:08:28;;;;;;;1.60;1.50;;;22.20;99.90;;;;;;6073303;23;20741;-85
2022/08/07 07:10:59;;;;;;;1.73;1.37;;;22.40;99.90;;;;;;6073036;23;20352;-82
2022/08/07 07:13:40;;;;;;;1.60;1.50;;;22.60;99.90;;;;;;6073428;23;20412;-82
2022/08/07 07:16:32;;;;;;;1.87;1.40;;;23.20;99.90;;;;;;6072551;23;20720;-81
2022/08/07 07:19:06;;;;;;;2.67;2.03;;;23.90;99.90;;;;;;6072277;23;20360;-81
2022/08/07 07:21:54;;;;;;;1.33;1.23;;;24.40;99.90;;;;;;6073110;23;20978;-82
2022/08/07 07:24:42;;;;;;;1.40;1.27;;;25.00;99.90;;;;;;6073564;23;20427;-82
2022/08/07 07:27:35;;;;;;;3.27;1.87;;;26.30;99.90;;;;;;6073951;23;20370;-82
2022/08/07 07:30:26;;;;;;;3.93;1.77;;;27.30;99.90;;;;;;6050731;23;20382;-83
2022/08/07 07:33:06;;;;;;;2.70;1.60;;;27.30;99.90;;;;;;6072871;23;20426;-82
2022/08/07 07:35:34;;;;;;;2.80;1.77;;;28.90;99.90;;;;;;6072633;23;20425;-81
2022/08/07 07:38:32;;;;;;;1.87;1.47;;;29.80;98.10;;;;;;6084113;23;20406;-81
2022/08/07 07:41:18;;;;;;;3.00;2.20;;;30.80;95.80;;;;;;6077465;23;20547;-81
2022/08/07 07:43:47;;;;;;;2.57;1.17;;;30.70;94.10;;;;;;6072153;23;20461;-82
2022/08/07 07:46:37;;;;;;;1.83;1.40;;;29.00;95.60;;;;;;6071664;23;20410;-83
2022/08/07 07:49:28;;;;;;;1.70;1.37;;;27.50;98.90;;;;;;6075338;23;20411;-84
2022/08/07 07:52:20;;;;;;;2.43;1.37;;;29.10;96.30;;;;;;6074082;23;20789;-82
2022/08/07 07:54:50;;;;;;;2.53;1.10;;;29.70;94.00;;;;;;6073954;23;20386;-80
2022/08/07 07:57:20;;;;;;;1.50;1.40;;;30.60;91.50;;;;;;6072919;23;20471;-81
2022/08/07 08:00:08;;;;;;;1.70;1.43;;;30.90;90.90;;;;;;6080150;23;20405;-81
2022/08/07 08:02:40;;;;;;;1.67;1.33;;;29.90;91.10;;;;;;6060240;23;20379;-82
2022/08/07 08:05:28;;;;;;;1.70;1.60;;;30.80;87.60;;;;;;6053402;23;20470;-83
2022/08/07 08:08:17;;;;;;;1.43;1.33;;;31.60;84.30;;;;;;6073762;23;20436;-83
2022/08/07 08:11:06;;;;;;;1.43;1.17;;;32.10;80.30;;;;;;6073688;23;20733;-80
2022/08/07 08:13:46;;;;;;;0.93;0.93;;;31.60;79.90;;;;;;6075235;23;20390;-82
2022/08/07 08:16:30;;;;;;;1.97;1.40;;;31.50;81.00;;;;;;6072774;23;20411;-82
2022/08/07 08:19:02;;;;;;;0.93;0.93;;;31.30;77.80;;;;;;6074949;23;20440;-82
2022/08/07 08:27:51;;;;;;;1.47;1.37;;;29.60;75.20;;;;;;6076416;23;20407;-81
2022/08/07 08:30:27;;;;;;;1.73;1.63;;;29.30;78.60;;;;;;6078899;23;20728;-82
2022/08/07 08:33:00;;;;;;;1.80;1.60;;;29.00;78.60;;;;;;6077275;23;20454;-82
2022/08/07 08:35:30;;;;;;;2.57;1.20;;;27.90;83.50;;;;;;6078032;23;20430;-82
2022/08/07 08:38:19;;;;;;;1.30;1.10;;;26.30;86.70;;;;;;6075012;23;20388;-82
2022/08/07 08:41:21;;;;;;;1.13;1.03;;;24.40;90.20;;;;;;6072581;23;20398;-82
2022/08/07 08:44:07;;;;;;;4.30;1.43;;;24.50;90.70;;;;;;6073707;23;20358;-83
2022/08/07 08:46:49;;;;;;;0.87;0.87;;;28.10;83.30;;;;;;6049574;23;20407;-81
2022/08/07 08:49:28;;;;;;;0.80;0.80;;;30.00;75.00;;;;;;6075642;23;20455;-83
2022/08/07 08:52:07;;;;;;;0.80;0.80;;;27.60;82.40;;;;;;6075396;23;20437;-83
2022/08/07 08:54:58;;;;;;;1.17;1.07;;;26.30;81.90;;;;;;6051165;23;20395;-81
2022/08/07 08:57:43;;;;;;;1.07;1.07;;;26.40;81.30;;;;;;6076567;23;20477;-83
2022/08/07 09:00:12;;;;;;;1.30;0.93;;;26.90;77.10;;;;;;6078043;23;20474;-81
2022/08/07 09:03:01;;;;;;;1.50;1.10;;;29.40;72.90;;;;;;6077104;23;20443;-81
2022/08/07 09:06:02;;;;;;;1.00;0.90;;;30.70;67.40;;;;;;6050231;23;20469;-82
2022/08/07 09:08:40;;;;;;;1.43;1.00;;;29.50;67.70;;;;;;6078589;23;20673;-81
2022/08/07 09:11:35;;;;;;;1.47;1.37;;;28.90;65.60;;;;;;6087229;23;20540;-81
2022/08/07 09:14:35;;;;;;;2.73;1.07;;;28.70;69.10;;;;;;6088699;23;20401;-81
2022/08/07 09:17:17;;;;;;;0.70;0.70;;;29.90;66.00;;;;;;6088289;23;20454;-82
2022/08/07 09:20:22;;;;;;;4.17;1.37;;;31.20;63.00;;;;;;6089035;23;20383;-81
2022/08/07 09:23:51;;;;;;;1.30;1.07;;;33.00;58.30;;;;;;6082427;23;20395;-83
2022/08/07 09:27:15;;;;;;;1.30;1.20;;;32.00;56.70;;;;;;6039014;23;20402;-83
2022/08/07 09:29:49;;;;;;;1.63;0.80;;;31.90;57.10;;;;;;6059892;23;20483;-83
2022/08/07 09:33:13;;;;;;;2.20;1.00;;;32.90;55.60;;;;;;6087220;23;20462;-82
2022/08/07 09:36:19;;;;;;;2.73;1.63;;;31.20;58.20;;;;;;6087890;23;20441;-82
2022/08/07 09:38:57;;;;;;;2.60;2.00;;;28.20;62.20;;;;;;6084986;23;20393;-83
2022/08/07 09:41:37;;;;;;;1.33;1.27;;;26.90;67.60;;;;;;6075232;23;20454;-83
2022/08/07 09:44:47;;;;;;;1.10;1.10;;;25.00;71.60;;;;;;6081378;23;20406;-79
2022/08/07 09:47:38;;;;;;;1.80;1.57;;;23.90;75.50;;;;;;6074714;23;20387;-82
2022/08/07 09:51:19;;;;;;;1.13;1.03;;;23.30;80.00;;;;;;6075529;23;20403;-83
2022/08/07 09:54:09;;;;;;;1.70;1.60;;;23.20;81.60;;;;;;5986501;24;20605;-83
2022/08/07 09:56:47;;;;;;;1.20;1.00;;;22.90;78.60;;;;;;6074461;23;20356;-83
2022/08/07 09:59:52;;;;;;;1.30;1.17;;;22.70;82.20;;;;;;6076459;23;20434;-82
2022/08/07 10:02:52;;;;;;;2.27;1.40;;;22.90;81.80;;;;;;6076800;23;20401;-81
2022/08/07 10:05:34;;;;;;;1.00;1.00;;;22.70;82.10;;;;;;6052668;23;20575;-83
2022/08/07 10:08:39;;;;;;;0.90;0.90;;;22.70;83.50;;;;;;6075811;23;20437;-83
2022/08/07 10:11:47;;;;;;;2.03;1.20;;;22.70;84.00;;;;;;6051673;23;20364;-83
2022/08/07 10:14:34;;;;;;;1.67;1.40;;;23.00;85.90;;;;;;6073956;23;20357;-83
2022/08/07 10:17:25;;;;;;;2.50;1.50;;;23.20;84.80;;;;;;6075104;23;20444;-83
2022/08/07 10:20:14;;;;;;;0.87;0.87;;;23.20;81.30;;;;;;6078526;23;20377;-82
2022/08/07 10:23:15;;;;;;;2.40;1.40;;;22.80;83.20;;;;;;6087552;23;20392;-83
2022/08/07 10:26:35;;;;;;;1.17;1.07;;;22.70;81.60;;;;;;6076924;23;20491;-83
2022/08/07 10:29:42;;;;;;;1.80;1.20;;;22.80;83.60;;;;;;6076036;23;20402;-83
2022/08/07 10:32:25;;;;;;;1.10;1.07;;;22.90;82.50;;;;;;6051176;23;20391;-83
2022/08/07 10:35:37;;;;;;;1.97;1.43;;;23.10;84.70;;;;;;6075583;23;20406;-81
2022/08/07 10:38:29;;;;;;;2.80;1.57;;;23.00;83.30;;;;;;6074209;23;20380;-83
2022/08/07 10:41:32;;;;;;;2.20;1.40;;;22.90;84.50;;;;;;6074736;23;20380;-81
2022/08/07 10:44:21;;;;;;;1.10;1.00;;;22.60;86.00;;;;;;6074652;23;20398;-80
2022/08/07 10:47:23;;;;;;;1.20;1.10;;;22.50;84.80;;;;;;6081105;23;20424;-81
2022/08/07 10:50:26;;;;;;;2.60;1.10;;;22.30;83.40;;;;;;6079722;23;20372;-79
2022/08/07 10:53:23;;;;;;;1.67;1.13;;;22.30;83.60;;;;;;6075589;23;20387;-83
2022/08/07 10:56:01;;;;;;;2.30;1.00;;;22.00;82.70;;;;;;6073967;23;20384;-83
2022/08/07 10:58:46;;;;;;;1.00;0.90;;;22.40;84.00;;;;;;6075016;23;20413;-82
2022/08/07 11:02:09;;;;;;;0.90;0.80;;;22.70;84.70;;;;;;6073470;23;20382;-81
2022/08/07 11:05:31;;;;;;;1.70;1.53;;;22.70;83.80;;;;;;5985751;24;20409;-82
2022/08/07 11:08:39;;;;;;;1.40;1.30;;;22.20;85.90;;;;;;6008297;23;20524;-82
2022/08/07 11:11:13;;;;;;;1.23;1.13;;;22.00;86.70;;;;;;6072826;23;20398;-82
2022/08/07 11:14:20;;;;;;;1.80;1.70;;;21.80;85.80;;;;;;6074567;23;20435;-82
2022/08/07 11:17:23;;;;;;;0.80;0.80;;;21.80;87.50;;;;;;6021625;23;20763;-81
2022/08/07 11:20:37;;;;;;;1.10;1.00;;;22.20;86.80;;;;;;6073719;23;20383;-83
2022/08/07 11:23:32;;;;;;;1.43;1.33;;;22.40;86.50;;;;;;6029506;23;20447;-82
2022/08/07 11:26:40;;;;;;;1.40;0.90;;;22.40;84.60;;;;;;6072657;23;20495;-81
2022/08/07 11:29:32;;;;;;;1.73;1.53;;;22.40;83.40;;;;;;6073419;23;20356;-81
2022/08/07 11:32:21;;;;;;;1.30;1.20;;;22.30;84.60;;;;;;6073344;23;20375;-82
2022/08/07 11:34:57;;;;;;;1.03;0.83;;;22.40;84.70;;;;;;6072799;23;20597;-81
2022/08/07 11:37:50;;;;;;;1.90;1.17;;;22.50;86.70;;;;;;6074127;23;20733;-83
2022/08/07 11:40:48;;;;;;;1.10;1.00;;;22.50;85.90;;;;;;6070606;23;20384;-81
2022/08/07 11:43:31;;;;;;;1.10;1.00;;;22.40;85.60;;;;;;6072831;23;20390;-83
2022/08/07 11:46:42;;;;;;;1.20;1.10;;;22.40;85.60;;;;;;6072040;23;20430;-79
2022/08/07 11:49:31;;;;;;;1.47;1.37;;;22.30;85.60;;;;;;6073842;23;20349;-82
2022/08/07 11:52:56;;;;;;;0.97;0.93;;;22.30;87.30;;;;;;6076156;23;20966;-82
2022/08/07 11:55:30;;;;;;;0.80;0.80;;;22.10;83.50;;;;;;6055435;23;20397;-82
2022/08/07 11:58:33;;;;;;;1.30;1.20;;;21.80;86.50;;;;;;6073638;23;20369;-84
2022/08/07 12:01:03;;;;;;;2.07;1.07;;;22.00;87.50;;;;;;6081087;23;20440;-79
2022/08/07 12:03:53;;;;;;;1.23;1.10;;;22.30;88.20;;;;;;6078113;23;20444;-82
2022/08/07 12:06:39;;;;;;;3.17;2.30;;;22.40;86.10;;;;;;6073071;23;20667;-81
2022/08/07 12:09:40;;;;;;;1.93;1.70;;;22.30;86.80;;;;;;6072247;23;20439;-82
2022/08/07 12:12:17;;;;;;;1.23;1.13;;;22.30;87.30;;;;;;6072655;23;20399;-83
2022/08/07 12:15:14;;;;;;;1.40;1.10;;;22.30;88.10;;;;;;6072243;23;20367;-82
2022/08/07 12:18:11;;;;;;;1.47;1.20;;;22.30;88.10;;;;;;6072557;23;20536;-83
2022/08/07 12:21:15;;;;;;;1.40;1.30;;;22.40;86.20;;;;;;6072135;23;20584;-83
2022/08/07 12:25:51;;;;;;;2.63;1.20;;;22.30;87.10;;;;;;6053172;23;20391;-83
2022/08/07 12:27:39;;;;;;;1.20;1.10;;;22.40;88.70;;;;;;6072697;23;20620;-82
2022/08/07 12:30:36;;;;;;;1.73;1.10;;;22.50;86.50;;;;;;6071244;23;20473;-83
2022/08/07 12:33:17;;;;;;;1.43;1.10;;;22.40;86.40;;;;;;6073366;23;20428;-80
2022/08/07 12:35:57;;;;;;;1.40;1.30;;;22.40;86.10;;;;;;6074788;23;20405;-83
2022/08/07 12:38:32;;;;;;;3.33;1.20;;;22.40;85.80;;;;;;6073346;23;20458;-81
2022/08/07 12:41:14;;;;;;;1.60;1.50;;;22.40;88.70;;;;;;6071545;23;20368;-84
2022/08/07 12:43:47;;;;;;;1.13;1.03;;;22.50;89.50;;;;;;6072959;23;20395;-83
2022/08/07 12:46:42;;;;;;;1.30;1.20;;;22.60;89.30;;;;;;6049785;23;20420;-82
2022/08/07 12:49:18;;;;;;;1.30;1.20;;;22.70;88.80;;;;;;6074177;23;20380;-83
2022/08/07 12:52:07;;;;;;;1.20;1.10;;;22.70;87.90;;;;;;6052875;23;20381;-80
2022/08/07 12:54:58;;;;;;;2.30;1.00;;;22.60;85.60;;;;;;6073698;23;20374;-84
2022/08/07 12:57:35;;;;;;;2.40;1.00;;;22.50;84.80;;;;;;6072807;23;20699;-81
2022/08/07 13:00:30;;;;;;;2.80;1.27;;;22.40;86.60;;;;;;6072605;23;20381;-84
2022/08/07 13:04:03;;;;;;;1.00;0.80;;;22.50;86.50;;;;;;6072795;23;20760;-81
2022/08/07 13:07:04;;;;;;;0.90;0.90;;;22.40;85.00;;;;;;6075327;23;20408;-80
2022/08/07 13:10:38;;;;;;;1.40;1.00;;;22.40;86.20;;;;;;6075125;23;20453;-80
2022/08/07 13:13:43;;;;;;;1.47;1.10;;;22.40;87.30;;;;;;6080125;23;20594;-82
2022/08/07 13:16:23;;;;;;;1.23;1.13;;;22.40;87.60;;;;;;6072353;23;20390;-81
2022/08/07 13:19:15;;;;;;;4.60;1.60;;;22.40;87.10;;;;;;6075554;23;20360;-83
2022/08/07 13:22:15;;;;;;;1.10;1.00;;;22.60;87.60;;;;;;6078333;23;20409;-81
2022/08/07 13:25:03;;;;;;;1.50;1.40;;;22.70;86.30;;;;;;6078689;23;20385;-80
2022/08/07 13:27:39;;;;;;;1.73;1.37;;;22.70;88.40;;;;;;6079594;23;20412;-82
2022/08/07 13:30:27;;;;;;;1.00;1.00;;;22.60;87.20;;;;;;6078602;23;20456;-81
2022/08/07 13:33:19;;;;;;;2.00;1.40;;;22.50;88.40;;;;;;6079387;23;20357;-81
2022/08/07 13:36:15;;;;;;;1.53;1.00;;;22.40;86.80;;;;;;6082387;23;20387;-83
2022/08/07 13:38:59;;;;;;;2.20;0.90;;;22.50;88.20;;;;;;6081772;23;20442;-82
2022/08/07 13:41:57;;;;;;;1.00;0.87;;;22.40;87.50;;;;;;6083141;23;20383;-82
2022/08/07 13:44:31;;;;;;;0.87;0.87;;;22.10;87.10;;;;;;6087414;23;20444;-82
2022/08/07 13:47:05;;;;;;;1.13;1.03;;;22.10;87.80;;;;;;6039329;23;20385;-81
2022/08/07 13:49:42;;;;;;;0.90;0.90;;;22.20;87.40;;;;;;6039681;23;20360;-81
2022/08/07 13:52:36;;;;;;;1.47;1.20;;;22.30;88.50;;;;;;6082434;23;20407;-82
2022/08/07 13:55:13;;;;;;;1.80;1.07;;;22.50;86.20;;;;;;6062404;23;20535;-82
2022/08/07 13:58:59;;;;;;;1.17;1.07;;;22.50;86.10;;;;;;6080256;23;20425;-81
2022/08/07 14:01:00;;;;;;;3.57;1.40;;;22.40;87.90;;;;;;6061375;23;20396;-82
2022/08/07 14:03:39;;;;;;;1.07;1.07;;;22.40;88.70;;;;;;6078617;23;20453;-81
2022/08/07 14:06:36;;;;;;;1.53;1.00;;;22.30;88.60;;;;;;6057207;23;20467;-82
2022/08/07 14:09:08;;;;;;;0.87;0.87;;;22.40;89.70;;;;;;6076568;23;20417;-83
2022/08/07 14:11:48;;;;;;;1.47;1.37;;;22.50;89.00;;;;;;6086678;23;20392;-82
2022/08/07 14:15:07;;;;;;;1.60;1.50;;;22.50;88.70;;;;;;5093453;28;20670;-83
2022/08/07 14:17:39;;;;;;;1.00;1.00;;;22.40;86.90;;;;;;5089950;28;20453;-83
2022/08/07 14:20:31;;;;;;;1.00;0.90;;;22.40;89.70;;;;;;5085774;28;20514;-83
2022/08/07 14:23:45;;;;;;;1.00;0.97;;;22.50;88.20;;;;;;5074652;28;20428;-83